Taylor Fork

This weather station provides wind speed, gust or max wind speed, and wind direction at 9460 ft. near Pika Point above Sunlight Basin.  

This data can be used with temperature and precipitation data from the Carrot Basin SNOTEL site. If the data below is not displayed or up to date, view data here.

Elevation
9460ft
Jump to table bottom
Date Time Temperature
deg F
RH, % Wind Speed Wind Gust Wind Direction
02/28/24 17:00 11.2 93 22 31 SW - 205
02/28/24 16:00 10.8 93 20 28 SW - 207
02/28/24 15:00 11.0 92 21 31 S - 194
02/28/24 14:00 10.2 92 22 35 S - 195
02/28/24 13:00 10.1 91 26 37 S - 194
02/28/24 12:00 11.3 91 25 37 SW - 203
02/28/24 11:00 9.6 91 25 38 SW - 205
02/28/24 10:00 10.4 91 21 37 SW - 211
02/28/24 09:00 7.5 91 23 36 SW - 205
02/28/24 08:00 4.7 91 20 28 SW - 203
02/28/24 07:00 3.9 91 21 28 SW - 205
02/28/24 06:00 2.5 90 17 24 SW - 210
02/28/24 05:00 2.7 90 18 27 SW - 212
02/28/24 04:00 1.9 90 16 31 SW - 222
02/28/24 03:00 2.5 90 16 29 SW - 243
02/28/24 02:00 0.7 90 19 31 SW - 236
02/28/24 01:00 1.3 89 20 30 SW - 239
02/28/24 00:00 0.2 89 19 32 SW - 233
02/27/24 23:00 0.6 89 20 35 W - 252
02/27/24 22:00 0.9 89 22 34 W - 267
02/27/24 21:00 0.9 89 23 37 W - 284
02/27/24 20:00 -0.6 89 21 32 W - 291
02/27/24 19:00 -0.4 89 21 31 W - 290
02/27/24 18:00 -0.2 89 20 36 NW - 299
02/27/24 17:00 0.2 89 22 39 NW - 302
02/27/24 16:00 1.3 89 23 38 NW - 305
02/27/24 15:00 0.8 89 23 46 NW - 308
02/27/24 14:00 2.1 88 25 43 NW - 305
02/27/24 13:00 1.9 88 21 38 NW - 302
02/27/24 12:00 1.6 88 13 32 W - 288
02/27/24 11:00 3.4 88 18 27 W - 287
02/27/24 10:00 4.2 88 10 17 W - 263
02/27/24 09:00 3.5 88 9 16 W - 249
02/27/24 08:00 1.2 89 8 15 NW - 294
02/27/24 07:00 -0.1 89 9 18 NW - 301
02/27/24 06:00 -0.7 90 13 22 NW - 301
02/27/24 05:00 -0.4 90 12 18 NW - 295
02/27/24 04:00 -0.3 90 11 21 W - 291
02/27/24 03:00 0.4 90 8 14 NW - 312
02/27/24 02:00 0.7 90 6 9 N - 351
02/27/24 01:00 1.3 91 10 19 N - 343
02/27/24 00:00 2.0 91 14 26 N - 343
02/26/24 23:00 2.9 91 11 27 N - 351
02/26/24 22:00 5.3 92 5 13 N - 351
02/26/24 21:00 6.2 92 6 13 N - 343
02/26/24 20:00 7.7 93 9 24 NW - 329
02/26/24 19:00 8.7 93 10 22 NW - 326
02/26/24 18:00 10.4 94 13 23 NW - 313
02/26/24 17:00 11.6 94 14 26 NW - 319
02/26/24 16:00 13.0 95 18 31 NW - 301